Time;durP1;ratioP1;P1;durP2;ratioP2;P2;SDS_P1;SDS_P2;PMS_P1;PMS_P2;Temp;Humidity;BMP_temperature;BMP_pressure;BME280_temperature;BME280_humidity;BME280_pressure;Samples;Min_cycle;Max_cycle;Signal;HPM_P1;HPM_P2
2023/06/10 00:00:41;;;;;;;0.65;0.65;;;24.30;80.40;;;;;;5095868;28;20414;-69
2023/06/10 00:03:09;;;;;;;0.82;0.82;;;24.20;80.50;;;;;;5095649;28;20036;-70
2023/06/10 00:05:35;;;;;;;0.20;0.20;;;24.30;80.90;;;;;;5095292;28;20051;-68
2023/06/10 00:08:07;;;;;;;0.35;0.35;;;24.30;80.60;;;;;;5095706;28;20379;-70
2023/06/10 00:10:36;;;;;;;0.52;0.52;;;24.20;80.80;;;;;;5096091;28;20103;-69
2023/06/10 00:13:08;;;;;;;0.85;0.85;;;24.30;80.70;;;;;;5095578;28;20020;-69
2023/06/10 00:15:35;;;;;;;0.00;0.00;;;24.10;81.30;;;;;;5095373;28;20082;-68
2023/06/10 00:18:02;;;;;;;0.10;0.10;;;24.10;81.90;;;;;;5095593;28;20020;-69
2023/06/10 00:20:28;;;;;;;4.43;3.45;;;24.00;82.40;;;;;;5095438;28;20024;-70
2023/06/10 00:22:54;;;;;;;0.28;0.28;;;24.00;82.60;;;;;;5095396;28;20043;-71
2023/06/10 00:25:19;;;;;;;0.00;0.00;;;23.90;82.90;;;;;;5095047;28;20028;-70
2023/06/10 00:27:45;;;;;;;0.70;0.70;;;24.00;83.10;;;;;;5095640;28;20024;-69
2023/06/10 00:30:11;;;;;;;0.43;0.43;;;23.80;83.40;;;;;;5110372;28;20032;-69
2023/06/10 00:32:37;;;;;;;0.52;0.52;;;23.70;84.10;;;;;;5095513;28;20087;-71
2023/06/10 00:35:07;;;;;;;0.30;0.30;;;23.80;84.00;;;;;;5095054;28;20061;-69
2023/06/10 00:37:35;;;;;;;0.00;0.00;;;23.70;84.70;;;;;;5095324;28;20126;-69
2023/06/10 00:40:03;;;;;;;0.20;0.20;;;23.70;85.00;;;;;;5093901;28;20069;-70
2023/06/10 00:42:28;;;;;;;1.65;1.10;;;23.70;85.00;;;;;;5082005;28;20040;-71
2023/06/10 00:44:55;;;;;;;2.80;0.47;;;23.60;85.20;;;;;;5094062;28;20032;-70
2023/06/10 00:47:21;;;;;;;0.60;0.43;;;23.70;85.70;;;;;;5093571;28;20032;-70
2023/06/10 00:49:49;;;;;;;0.13;0.13;;;23.80;85.70;;;;;;5093513;28;20475;-71
2023/06/10 00:52:16;;;;;;;0.10;0.10;;;23.70;85.90;;;;;;5094923;28;20028;-70
2023/06/10 00:54:42;;;;;;;0.00;0.00;;;23.60;86.80;;;;;;5093889;28;20028;-69
2023/06/10 00:57:08;;;;;;;0.52;0.52;;;23.60;87.00;;;;;;5093198;28;20045;-70
2023/06/10 00:59:35;;;;;;;0.50;0.30;;;23.50;87.40;;;;;;5094613;28;20027;-71
2023/06/10 01:02:02;;;;;;;0.50;0.40;;;23.50;87.80;;;;;;5093226;28;20108;-69
2023/06/10 01:04:29;;;;;;;1.85;0.60;;;23.50;87.90;;;;;;5094346;28;20066;-69
2023/06/10 01:07:23;;;;;;;5.13;1.10;;;23.40;88.60;;;;;;5093519;28;20127;-69
2023/06/10 01:09:59;;;;;;;0.10;0.10;;;23.40;88.80;;;;;;5094363;28;20071;-69
2023/06/10 01:12:24;;;;;;;5.28;1.55;;;23.50;89.20;;;;;;5094190;28;20055;-71
2023/06/10 01:14:52;;;;;;;0.10;0.10;;;23.40;89.40;;;;;;5094150;28;20431;-70
2023/06/10 01:17:18;;;;;;;0.17;0.17;;;23.40;89.80;;;;;;5094255;28;20024;-71
2023/06/10 01:19:44;;;;;;;0.00;0.00;;;23.30;90.30;;;;;;5093165;28;20027;-71
2023/06/10 01:22:10;;;;;;;0.10;0.10;;;23.10;90.70;;;;;;5092969;28;20013;-69
2023/06/10 01:24:40;;;;;;;0.10;0.10;;;23.30;90.70;;;;;;5094034;28;20028;-70
2023/06/10 01:27:12;;;;;;;2.85;0.90;;;23.30;90.80;;;;;;5093130;28;20059;-71
2023/06/10 01:29:54;;;;;;;0.50;0.40;;;23.30;90.50;;;;;;5092413;28;20028;-71
2023/06/10 01:32:31;;;;;;;1.92;0.63;;;23.30;90.90;;;;;;5094172;28;20020;-69
2023/06/10 01:34:57;;;;;;;3.50;0.80;;;23.30;90.90;;;;;;5093995;28;20032;-71
2023/06/10 01:37:25;;;;;;;0.10;0.10;;;23.30;91.10;;;;;;5093857;28;20105;-71
2023/06/10 01:39:51;;;;;;;0.10;0.10;;;23.10;91.50;;;;;;5109720;28;20455;-70
2023/06/10 01:42:18;;;;;;;1.23;1.23;;;23.20;91.50;;;;;;5092307;28;20020;-70
2023/06/10 01:44:44;;;;;;;0.10;0.10;;;23.10;91.80;;;;;;5093647;28;20479;-70
2023/06/10 01:47:09;;;;;;;1.02;1.02;;;23.10;91.90;;;;;;5093816;28;20116;-71
2023/06/10 01:49:35;;;;;;;0.43;0.43;;;22.90;92.50;;;;;;5092674;28;20158;-69
2023/06/10 01:52:01;;;;;;;0.68;0.57;;;23.00;93.00;;;;;;5093277;28;20035;-70
2023/06/10 01:54:27;;;;;;;0.20;0.20;;;22.90;92.60;;;;;;5109463;28;20035;-69
2023/06/10 01:56:53;;;;;;;0.40;0.40;;;22.70;93.70;;;;;;5092649;28;20060;-70
2023/06/10 01:59:19;;;;;;;0.47;0.47;;;22.60;93.90;;;;;;5092292;28;20081;-69
2023/06/10 02:01:45;;;;;;;0.20;0.17;;;22.50;94.70;;;;;;5092517;28;20384;-71
2023/06/10 02:04:11;;;;;;;0.43;0.30;;;22.70;94.60;;;;;;5093416;28;20040;-70
2023/06/10 02:06:37;;;;;;;0.17;0.17;;;22.70;94.80;;;;;;5093576;28;20028;-71
2023/06/10 02:09:03;;;;;;;0.20;0.20;;;22.80;94.70;;;;;;5092067;28;20031;-71
2023/06/10 02:11:29;;;;;;;0.35;0.35;;;22.70;95.00;;;;;;5093061;28;20020;-69
2023/06/10 02:13:55;;;;;;;0.05;0.05;;;22.70;94.80;;;;;;5091729;28;20476;-70
2023/06/10 02:16:21;;;;;;;0.20;0.20;;;22.80;94.90;;;;;;5082812;28;20094;-69
2023/06/10 02:18:47;;;;;;;0.30;0.30;;;23.00;94.60;;;;;;5088193;28;20024;-71
2023/06/10 02:21:12;;;;;;;7.18;0.88;;;22.90;94.60;;;;;;5093641;28;20067;-72
2023/06/10 02:23:38;;;;;;;0.75;0.75;;;22.70;95.10;;;;;;5092977;28;20042;-70
2023/06/10 02:26:04;;;;;;;0.20;0.20;;;22.60;95.80;;;;;;5093039;28;20031;-69
2023/06/10 02:28:30;;;;;;;0.10;0.10;;;22.60;95.80;;;;;;5091792;28;20132;-70
2023/06/10 02:30:58;;;;;;;0.00;0.00;;;22.90;95.50;;;;;;5108826;28;20482;-70
2023/06/10 02:33:24;;;;;;;0.20;0.20;;;22.90;95.60;;;;;;5091728;28;20024;-72
2023/06/10 02:35:50;;;;;;;0.25;0.25;;;22.90;95.60;;;;;;5093190;28;20356;-70
2023/06/10 02:38:16;;;;;;;0.22;0.22;;;23.00;95.30;;;;;;5091758;28;20118;-69
2023/06/10 02:40:42;;;;;;;0.00;0.00;;;22.80;95.60;;;;;;5091621;28;20039;-70
2023/06/10 02:43:10;;;;;;;0.90;0.38;;;22.80;95.70;;;;;;5091201;28;20043;-68
2023/06/10 02:45:36;;;;;;;2.65;1.33;;;22.60;96.40;;;;;;5093087;28;20081;-71
2023/06/10 02:48:03;;;;;;;0.35;0.32;;;22.40;97.00;;;;;;5091659;28;20043;-70
2023/06/10 02:50:30;;;;;;;0.50;0.40;;;22.20;97.70;;;;;;5085366;28;20020;-68
2023/06/10 02:53:14;;;;;;;1.35;1.25;;;22.20;98.10;;;;;;5071800;28;20029;-69
2023/06/10 02:55:44;;;;;;;0.00;0.00;;;22.20;98.40;;;;;;5091419;28;20430;-70
2023/06/10 02:58:13;;;;;;;0.63;0.63;;;22.30;98.70;;;;;;5091674;28;20032;-70
2023/06/10 03:00:40;;;;;;;1.33;1.08;;;22.30;98.50;;;;;;5091621;28;20055;-71
2023/06/10 03:03:08;;;;;;;2.65;0.75;;;22.30;98.30;;;;;;5091302;28;20044;-70
2023/06/10 03:05:42;;;;;;;0.45;0.45;;;22.30;98.50;;;;;;5091391;28;20048;-69
2023/06/10 03:08:09;;;;;;;0.10;0.10;;;22.10;99.00;;;;;;5091620;28;20024;-70
2023/06/10 03:10:37;;;;;;;1.85;0.65;;;22.20;98.90;;;;;;5091119;28;20016;-70
2023/06/10 03:13:09;;;;;;;0.10;0.10;;;22.40;98.60;;;;;;5091141;28;20401;-70
2023/06/10 03:15:36;;;;;;;0.00;0.00;;;22.50;98.40;;;;;;5091370;28;20031;-70
2023/06/10 03:18:06;;;;;;;1.08;0.65;;;22.20;99.00;;;;;;5108171;28;20036;-71
2023/06/10 03:20:36;;;;;;;1.17;1.00;;;22.20;99.20;;;;;;5091425;28;20429;-70
2023/06/10 03:23:06;;;;;;;2.65;1.80;;;22.20;99.00;;;;;;5091294;28;20036;-71
2023/06/10 03:25:33;;;;;;;0.10;0.10;;;22.00;99.50;;;;;;5109461;28;20483;-70
2023/06/10 03:27:58;;;;;;;1.08;0.32;;;22.20;99.20;;;;;;5095444;28;20027;-71
2023/06/10 03:30:24;;;;;;;0.20;0.20;;;21.90;99.80;;;;;;5094922;28;20024;-71
2023/06/10 03:32:50;;;;;;;1.75;0.65;;;22.00;99.80;;;;;;5094745;28;20030;-71
2023/06/10 03:35:18;;;;;;;0.55;0.55;;;22.20;99.30;;;;;;5094778;28;20069;-71
2023/06/10 03:37:45;;;;;;;0.30;0.30;;;22.40;99.00;;;;;;5094979;28;20016;-69
2023/06/10 03:40:11;;;;;;;0.10;0.10;;;22.00;99.50;;;;;;5094825;28;20050;-70
2023/06/10 03:42:39;;;;;;;5.97;1.67;;;21.90;99.90;;;;;;5094470;28;20047;-70
2023/06/10 03:45:06;;;;;;;0.63;0.40;;;21.80;99.90;;;;;;5094849;28;20048;-69
2023/06/10 03:47:36;;;;;;;0.10;0.10;;;21.80;99.90;;;;;;5112028;28;20077;-71
2023/06/10 03:50:04;;;;;;;16.30;3.70;;;21.80;99.90;;;;;;5094697;28;20073;-72
2023/06/10 03:52:31;;;;;;;0.05;0.05;;;21.70;99.90;;;;;;5094995;28;20480;-71
2023/06/10 03:54:58;;;;;;;1.20;1.10;;;21.70;99.90;;;;;;5094299;28;20088;-70
2023/06/10 03:57:23;;;;;;;1.38;1.05;;;21.60;99.90;;;;;;5094596;28;20024;-70
2023/06/10 03:59:49;;;;;;;0.60;0.55;;;21.70;99.90;;;;;;5096186;28;20131;-69
2023/06/10 04:02:16;;;;;;;0.28;0.28;;;21.70;99.90;;;;;;5095684;28;20016;-69
2023/06/10 04:04:42;;;;;;;0.10;0.10;;;21.60;99.90;;;;;;5094185;28;20024;-71
2023/06/10 04:07:08;;;;;;;0.00;0.00;;;21.60;99.90;;;;;;5095681;28;20379;-71
2023/06/10 04:09:35;;;;;;;0.05;0.05;;;21.60;99.90;;;;;;5084963;28;20078;-69
2023/06/10 04:12:02;;;;;;;0.00;0.00;;;21.50;99.90;;;;;;5089513;28;20119;-70
2023/06/10 04:14:28;;;;;;;0.55;0.55;;;21.60;99.90;;;;;;5094021;28;20023;-70
2023/06/10 04:16:54;;;;;;;0.22;0.22;;;21.50;99.90;;;;;;5111341;28;20032;-69
2023/06/10 04:19:21;;;;;;;0.32;0.32;;;21.50;99.90;;;;;;5093879;28;20020;-71
2023/06/10 04:21:46;;;;;;;6.32;4.38;;;21.60;99.90;;;;;;5094283;28;20043;-71
2023/06/10 04:24:12;;;;;;;0.63;0.25;;;21.60;99.90;;;;;;5093684;28;20028;-70
2023/06/10 04:26:38;;;;;;;1.52;0.98;;;21.70;99.90;;;;;;5111035;28;20024;-70
2023/06/10 04:29:04;;;;;;;1.30;1.30;;;21.50;99.90;;;;;;5093999;28;20031;-69
2023/06/10 04:31:32;;;;;;;0.28;0.28;;;21.40;99.90;;;;;;5093860;28;20016;-68
2023/06/10 04:33:58;;;;;;;0.05;0.05;;;21.40;99.90;;;;;;5093869;28;20046;-69
2023/06/10 04:36:24;;;;;;;0.00;0.00;;;21.70;99.90;;;;;;5093205;28;20035;-69
2023/06/10 04:38:52;;;;;;;0.55;0.55;;;21.70;99.90;;;;;;5095184;28;20037;-68
2023/06/10 04:41:18;;;;;;;0.00;0.00;;;21.90;99.90;;;;;;5093435;28;20020;-70
2023/06/10 04:43:44;;;;;;;0.00;0.00;;;21.70;99.90;;;;;;5110553;28;20054;-70
2023/06/10 04:46:12;;;;;;;0.25;0.25;;;21.80;99.90;;;;;;5093515;28;20369;-70
2023/06/10 04:48:37;;;;;;;0.43;0.43;;;22.00;99.90;;;;;;5093640;28;20033;-69
2023/06/10 04:51:05;;;;;;;0.10;0.10;;;21.70;99.90;;;;;;5094551;28;20028;-68
2023/06/10 04:53:31;;;;;;;0.00;0.00;;;22.20;99.90;;;;;;5093123;28;20032;-69
2023/06/10 04:55:57;;;;;;;0.00;0.00;;;22.60;99.90;;;;;;5094817;28;20395;-70
2023/06/10 04:58:23;;;;;;;0.10;0.10;;;22.50;99.90;;;;;;5094854;28;20032;-70
2023/06/10 05:00:49;;;;;;;0.08;0.08;;;22.50;99.90;;;;;;5094823;28;20020;-70
2023/06/10 05:03:15;;;;;;;0.10;0.10;;;22.60;99.90;;;;;;5094768;28;20028;-70
2023/06/10 05:05:41;;;;;;;0.28;0.28;;;22.60;99.90;;;;;;5094082;28;20020;-70
2023/06/10 05:08:07;;;;;;;0.00;0.00;;;22.70;99.90;;;;;;5094779;28;20024;-69
2023/06/10 05:10:34;;;;;;;0.20;0.20;;;22.70;99.90;;;;;;5094410;28;20024;-70
2023/06/10 05:13:00;;;;;;;0.57;0.57;;;22.70;99.90;;;;;;5094862;28;20373;-69
2023/06/10 05:15:26;;;;;;;0.95;0.95;;;22.30;99.90;;;;;;5094144;28;20103;-71
2023/06/10 05:17:52;;;;;;;0.00;0.00;;;22.30;99.90;;;;;;5094608;28;20103;-68
2023/06/10 05:20:18;;;;;;;0.00;0.00;;;22.30;99.90;;;;;;5094055;28;20483;-71
2023/06/10 05:22:44;;;;;;;0.00;0.00;;;22.30;99.90;;;;;;5094038;28;20033;-71
2023/06/10 05:25:10;;;;;;;0.05;0.05;;;22.50;99.90;;;;;;5094347;28;20024;-69
2023/06/10 05:27:36;;;;;;;0.17;0.17;;;23.00;99.90;;;;;;5094198;28;20028;-71
2023/06/10 05:30:03;;;;;;;0.00;0.00;;;23.00;99.90;;;;;;5094296;28;20038;-71
2023/06/10 05:32:29;;;;;;;0.00;0.00;;;23.20;99.80;;;;;;5094005;28;20024;-69
2023/06/10 05:34:54;;;;;;;0.03;0.03;;;23.00;99.90;;;;;;5093638;28;20036;-70
2023/06/10 05:37:20;;;;;;;0.30;0.30;;;22.90;99.90;;;;;;5094259;28;20028;-71
2023/06/10 05:39:46;;;;;;;0.00;0.00;;;22.90;99.90;;;;;;5094153;28;20028;-69
2023/06/10 05:42:12;;;;;;;0.35;0.35;;;22.90;99.90;;;;;;5093744;28;20024;-69
2023/06/10 05:44:37;;;;;;;6.53;2.60;;;23.10;99.90;;;;;;5093557;28;20036;-70
2023/06/10 05:47:03;;;;;;;0.20;0.20;;;22.90;99.80;;;;;;5093832;28;20040;-70
2023/06/10 05:49:29;;;;;;;1.20;1.15;;;23.00;99.80;;;;;;5093125;28;20032;-69
2023/06/10 05:51:57;;;;;;;3.30;0.93;;;22.90;99.80;;;;;;5093769;28;20020;-69
2023/06/10 05:54:23;;;;;;;0.47;0.47;;;22.90;99.90;;;;;;5093730;28;20028;-69
2023/06/10 05:56:48;;;;;;;0.30;0.30;;;22.90;99.90;;;;;;5109332;28;20111;-70
2023/06/10 05:59:14;;;;;;;1.48;0.88;;;23.10;99.50;;;;;;5093765;28;20097;-70
2023/06/10 06:01:40;;;;;;;9.30;1.60;;;23.10;99.30;;;;;;5087356;28;20030;-69
2023/06/10 06:04:06;;;;;;;0.10;0.10;;;22.90;99.70;;;;;;5085605;28;20071;-69
2023/06/10 06:06:31;;;;;;;0.45;0.45;;;23.20;99.90;;;;;;5091187;28;20020;-68
2023/06/10 06:08:58;;;;;;;0.10;0.10;;;23.50;99.60;;;;;;5091771;28;20167;-68
2023/06/10 06:11:25;;;;;;;0.05;0.05;;;23.90;98.20;;;;;;5082017;28;20009;-67
2023/06/10 06:13:51;;;;;;;1.08;0.35;;;24.20;97.50;;;;;;5084338;28;20037;-69
2023/06/10 06:16:18;;;;;;;0.55;0.55;;;24.10;97.80;;;;;;5092437;28;20073;-68
2023/06/10 06:18:44;;;;;;;0.30;0.30;;;24.20;97.60;;;;;;5091531;28;20417;-68
2023/06/10 06:21:10;;;;;;;0.65;0.65;;;24.20;97.60;;;;;;5088090;28;20110;-67
2023/06/10 06:23:38;;;;;;;0.60;0.60;;;24.20;97.40;;;;;;5084315;28;20119;-69
2023/06/10 06:26:04;;;;;;;0.52;0.52;;;24.50;97.10;;;;;;5091154;28;20539;-68
2023/06/10 06:28:31;;;;;;;0.95;0.90;;;24.70;96.60;;;;;;5086913;28;20115;-69
2023/06/10 06:30:56;;;;;;;0.73;0.73;;;24.70;96.50;;;;;;5088729;28;20020;-68
2023/06/10 06:33:22;;;;;;;12.02;8.25;;;24.80;95.90;;;;;;5089789;28;20123;-68
2023/06/10 06:35:48;;;;;;;1.02;0.65;;;24.90;95.80;;;;;;5083655;28;20066;-67
2023/06/10 06:38:14;;;;;;;1.17;1.08;;;25.10;95.70;;;;;;5092091;28;20472;-69
2023/06/10 06:40:40;;;;;;;0.40;0.40;;;25.00;95.70;;;;;;5091432;28;20102;-68
2023/06/10 06:43:06;;;;;;;0.25;0.25;;;25.20;95.10;;;;;;5090236;28;20137;-69
2023/06/10 06:45:41;;;;;;;1.10;0.93;;;25.10;95.20;;;;;;5084230;28;20028;-68
2023/06/10 06:48:07;;;;;;;0.90;0.90;;;25.20;95.10;;;;;;5084594;28;20024;-68
2023/06/10 06:50:33;;;;;;;0.60;0.32;;;24.90;95.30;;;;;;5086962;28;20027;-70
2023/06/10 06:52:58;;;;;;;3.42;1.20;;;24.60;95.10;;;;;;5078965;28;20032;-71
2023/06/10 06:55:24;;;;;;;0.47;0.47;;;24.40;95.70;;;;;;5090260;28;20548;-69
2023/06/10 06:57:50;;;;;;;0.25;0.25;;;24.60;96.20;;;;;;5081124;28;20013;-69
2023/06/10 07:00:16;;;;;;;0.10;0.10;;;24.70;95.80;;;;;;5094847;28;20031;-71
2023/06/10 07:02:42;;;;;;;0.03;0.03;;;25.20;95.10;;;;;;5093199;28;20047;-68
2023/06/10 07:05:08;;;;;;;0.55;0.55;;;25.20;94.80;;;;;;5092802;28;20028;-76
2023/06/10 07:07:35;;;;;;;0.55;0.52;;;25.30;95.00;;;;;;5092196;28;20023;-69
2023/06/10 07:10:00;;;;;;;0.57;0.57;;;25.20;94.30;;;;;;5085144;28;20036;-68
2023/06/10 07:12:26;;;;;;;0.80;0.80;;;25.20;94.40;;;;;;5083514;28;20031;-74
2023/06/10 07:14:52;;;;;;;0.10;0.10;;;25.20;94.90;;;;;;5081742;28;20024;-68
2023/06/10 07:17:18;;;;;;;0.55;0.55;;;25.30;94.70;;;;;;5082543;28;20454;-69
2023/06/10 07:19:45;;;;;;;2.08;1.23;;;25.40;93.90;;;;;;5075307;28;20107;-68
2023/06/10 07:22:11;;;;;;;0.47;0.47;;;25.40;94.50;;;;;;5086944;28;20032;-70
2023/06/10 07:24:37;;;;;;;6.93;1.40;;;25.70;94.20;;;;;;5085950;28;20047;-70
2023/06/10 07:27:03;;;;;;;0.00;0.00;;;25.90;93.20;;;;;;5088605;28;20035;-70
2023/06/10 07:29:28;;;;;;;0.00;0.00;;;25.80;93.70;;;;;;5084912;28;20028;-70
2023/06/10 07:31:54;;;;;;;0.10;0.10;;;26.10;93.20;;;;;;5088117;28;20024;-68
2023/06/10 07:34:20;;;;;;;0.20;0.20;;;26.10;93.60;;;;;;5095141;28;20027;-69
2023/06/10 07:36:46;;;;;;;0.50;0.50;;;26.20;93.50;;;;;;5094650;28;20525;-68
2023/06/10 07:39:11;;;;;;;0.10;0.10;;;26.20;93.10;;;;;;5090020;28;20039;-68
2023/06/10 07:41:37;;;;;;;0.52;0.43;;;26.20;93.50;;;;;;5094402;28;20522;-69
2023/06/10 07:44:03;;;;;;;0.10;0.10;;;26.40;93.60;;;;;;5087561;28;20055;-68
2023/06/10 07:46:29;;;;;;;0.90;0.65;;;26.70;92.80;;;;;;5089960;28;20047;-69
2023/06/10 07:48:55;;;;;;;2.05;0.77;;;26.70;93.20;;;;;;5090781;28;20032;-70
2023/06/10 07:51:21;;;;;;;0.08;0.08;;;27.00;92.80;;;;;;5092170;28;20020;-70
2023/06/10 07:53:47;;;;;;;0.20;0.20;;;27.00;92.70;;;;;;5084354;28;20063;-69
2023/06/10 07:56:13;;;;;;;0.45;0.32;;;27.00;92.10;;;;;;5086906;28;20083;-68
2023/06/10 07:58:38;;;;;;;0.47;0.38;;;27.20;91.80;;;;;;5079061;28;20030;-71
2023/06/10 08:01:04;;;;;;;0.20;0.20;;;27.10;92.10;;;;;;5083118;28;20020;-68
2023/06/10 08:03:30;;;;;;;1.75;1.00;;;27.20;92.00;;;;;;5089723;28;20024;-70
2023/06/10 08:05:56;;;;;;;0.50;0.50;;;27.40;91.90;;;;;;5094576;28;20079;-68
2023/06/10 08:08:22;;;;;;;0.85;0.68;;;27.70;91.60;;;;;;5094462;28;20034;-70
2023/06/10 08:10:49;;;;;;;0.10;0.10;;;27.70;91.30;;;;;;5087255;28;20071;-69
2023/06/10 08:13:15;;;;;;;0.20;0.20;;;27.40;91.50;;;;;;5089411;28;20122;-70
2023/06/10 08:15:40;;;;;;;0.20;0.20;;;27.40;91.90;;;;;;5093785;28;20111;-69
2023/06/10 08:18:06;;;;;;;0.22;0.22;;;27.60;91.80;;;;;;5073511;28;20020;-72
2023/06/10 08:20:32;;;;;;;0.08;0.08;;;28.00;91.20;;;;;;5082534;28;20039;-70
2023/06/10 08:22:58;;;;;;;0.03;0.03;;;28.00;91.20;;;;;;5093881;28;20025;-69
2023/06/10 08:25:24;;;;;;;0.70;0.70;;;28.30;90.80;;;;;;5093580;28;20066;-68
2023/06/10 08:27:50;;;;;;;0.32;0.20;;;27.80;89.80;;;;;;5086333;28;20032;-70
2023/06/10 08:30:16;;;;;;;0.40;0.40;;;27.90;90.90;;;;;;5093537;28;20035;-69
2023/06/10 08:32:42;;;;;;;1.08;0.70;;;28.10;90.70;;;;;;5091172;28;20024;-70
2023/06/10 08:35:08;;;;;;;2.30;1.08;;;28.20;90.20;;;;;;5083221;28;20038;-69
2023/06/10 08:37:34;;;;;;;0.13;0.13;;;28.20;90.50;;;;;;5087411;28;20024;-70
2023/06/10 08:39:59;;;;;;;3.65;0.57;;;28.20;88.80;;;;;;5073666;28;20078;-69
2023/06/10 08:42:36;;;;;;;0.43;0.38;;;28.20;88.90;;;;;;5093977;28;20587;-69
2023/06/10 08:45:03;;;;;;;0.65;0.65;;;28.20;89.60;;;;;;5093373;28;20078;-68
2023/06/10 08:47:35;;;;;;;0.50;0.50;;;28.40;88.70;;;;;;5087212;28;20023;-68
2023/06/10 08:50:03;;;;;;;0.30;0.30;;;28.40;88.40;;;;;;5084160;28;20042;-68
2023/06/10 08:52:37;;;;;;;0.65;0.65;;;28.50;86.00;;;;;;5077027;28;20468;-68
2023/06/10 08:55:26;;;;;;;2.63;0.57;;;28.60;86.00;;;;;;5072768;28;20032;-69
2023/06/10 08:57:52;;;;;;;0.15;0.15;;;29.10;88.00;;;;;;5076957;28;20428;-69
2023/06/10 09:00:18;;;;;;;0.65;0.65;;;29.30;87.00;;;;;;5075386;28;20085;-69
2023/06/10 09:02:45;;;;;;;0.00;0.00;;;29.40;86.00;;;;;;5079062;28;20066;-70
2023/06/10 09:05:11;;;;;;;0.45;0.45;;;29.60;85.10;;;;;;5092018;28;20055;-69
2023/06/10 09:07:38;;;;;;;0.65;0.43;;;29.70;84.40;;;;;;5093542;28;20395;-68
2023/06/10 09:10:06;;;;;;;0.70;0.70;;;29.90;85.70;;;;;;5081944;28;20044;-70
2023/06/10 09:12:33;;;;;;;0.57;0.50;;;30.10;82.40;;;;;;5092783;28;20027;-70
2023/06/10 09:15:00;;;;;;;0.32;0.32;;;29.80;81.90;;;;;;5090259;28;20055;-69
2023/06/10 09:17:27;;;;;;;0.40;0.40;;;29.80;83.20;;;;;;5090265;28;20070;-69
2023/06/10 09:19:55;;;;;;;0.00;0.00;;;29.90;81.70;;;;;;5092858;28;20072;-70
2023/06/10 09:22:23;;;;;;;0.80;0.52;;;30.00;81.40;;;;;;5079761;28;20483;-70
2023/06/10 09:24:49;;;;;;;0.00;0.00;;;30.40;81.20;;;;;;5092562;28;20082;-69
2023/06/10 09:27:15;;;;;;;1.10;0.70;;;30.80;80.90;;;;;;5092423;28;20491;-71
2023/06/10 09:29:54;;;;;;;0.10;0.10;;;31.00;80.80;;;;;;5092947;28;20056;-68
2023/06/10 09:32:21;;;;;;;0.50;0.50;;;31.10;80.70;;;;;;5089065;28;20111;-70
2023/06/10 09:34:47;;;;;;;1.02;0.90;;;31.10;79.70;;;;;;5091676;28;20081;-69
2023/06/10 09:37:23;;;;;;;2.55;0.90;;;30.90;78.80;;;;;;5080446;28;20784;-70
2023/06/10 09:40:04;;;;;;;3.40;0.85;;;30.90;78.40;;;;;;5081980;28;20036;-69
2023/06/10 09:42:35;;;;;;;1.13;1.02;;;31.20;79.90;;;;;;5087493;28;20074;-69
2023/06/10 09:45:01;;;;;;;;;;;31.50;79.60;;;;;;5084056;28;20097;-68
2023/06/10 09:47:27;;;;;;;0.80;0.80;;;32.00;78.40;;;;;;5088563;28;19922;-70
2023/06/10 09:49:53;;;;;;;1.05;0.88;;;32.20;78.40;;;;;;5091984;28;20111;-70
2023/06/10 09:52:26;;;;;;;1.30;1.13;;;32.10;78.20;;;;;;5079481;28;20016;-70
2023/06/10 09:54:53;;;;;;;0.32;0.32;;;31.90;75.90;;;;;;5088433;28;20021;-71
2023/06/10 09:57:21;;;;;;;1.55;0.70;;;31.50;75.70;;;;;;5092289;28;20044;-71
2023/06/10 09:59:46;;;;;;;0.60;0.60;;;31.20;76.30;;;;;;5080954;28;20064;-69
2023/06/10 10:02:15;;;;;;;0.28;0.28;;;31.40;75.10;;;;;;5086675;28;20151;-70
2023/06/10 10:04:42;;;;;;;3.13;0.30;;;31.70;77.00;;;;;;5090356;28;20048;-68
2023/06/10 10:07:09;;;;;;;6.38;1.63;;;31.90;72.90;;;;;;5088409;28;20016;-69
2023/06/10 10:09:42;;;;;;;0.20;0.20;;;31.70;74.30;;;;;;5084679;28;20025;-69
2023/06/10 10:12:14;;;;;;;4.32;1.10;;;31.90;75.40;;;;;;5084960;28;20036;-69
2023/06/10 10:14:46;;;;;;;0.85;0.73;;;32.10;74.40;;;;;;5091383;28;20103;-71
2023/06/10 10:17:14;;;;;;;0.65;0.20;;;32.20;75.20;;;;;;5086681;28;20024;-69
2023/06/10 10:19:47;;;;;;;2.00;0.68;;;32.10;74.80;;;;;;5084156;28;20409;-70
2023/06/10 10:22:26;;;;;;;0.13;0.13;;;32.50;72.50;;;;;;5087308;28;20131;-76
2023/06/10 10:24:55;;;;;;;0.20;0.20;;;32.60;71.80;;;;;;5089703;28;20102;-71
2023/06/10 10:27:35;;;;;;;0.10;0.10;;;32.60;70.10;;;;;;5091764;28;20023;-69
2023/06/10 10:30:04;;;;;;;2.78;2.58;;;32.80;71.70;;;;;;5090584;28;20471;-69
2023/06/10 10:32:35;;;;;;;0.45;0.45;;;32.80;72.40;;;;;;5078586;28;20024;-69
2023/06/10 10:35:09;;;;;;;0.20;0.20;;;33.20;72.10;;;;;;5090982;28;20028;-70
2023/06/10 10:37:36;;;;;;;1.55;1.00;;;33.40;70.60;;;;;;5087747;28;20024;-70
2023/06/10 10:40:03;;;;;;;1.08;0.98;;;33.50;69.80;;;;;;5091196;28;20035;-70
2023/06/10 10:42:30;;;;;;;0.10;0.10;;;33.10;68.50;;;;;;5091214;28;20482;-70
2023/06/10 10:44:58;;;;;;;0.98;0.98;;;33.20;68.50;;;;;;5089776;28;20105;-69
2023/06/10 10:47:29;;;;;;;1.55;0.47;;;33.60;68.80;;;;;;5092532;28;20024;-71
2023/06/10 10:49:58;;;;;;;3.78;0.55;;;33.60;69.80;;;;;;5091976;28;20357;-70
2023/06/10 10:52:25;;;;;;;0.28;0.28;;;33.40;69.00;;;;;;5080108;28;20036;-71
2023/06/10 10:54:53;;;;;;;0.55;0.55;;;32.80;68.90;;;;;;5091651;28;20016;-70
2023/06/10 10:57:21;;;;;;;1.77;1.13;;;33.00;69.20;;;;;;5100949;28;20035;-71
2023/06/10 10:59:59;;;;;;;2.47;2.03;;;33.00;67.90;;;;;;5071105;28;20377;-70
2023/06/10 11:02:44;;;;;;;0.43;0.43;;;33.10;68.20;;;;;;5078592;28;20039;-69
2023/06/10 11:05:13;;;;;;;1.95;1.33;;;33.10;68.20;;;;;;5090603;28;20162;-71
2023/06/10 11:07:39;;;;;;;0.08;0.08;;;33.40;65.90;;;;;;5091573;28;20024;-70
2023/06/10 11:10:14;;;;;;;1.45;0.75;;;33.30;65.40;;;;;;5082176;28;20538;-69
2023/06/10 11:12:46;;;;;;;8.48;1.45;;;33.20;65.80;;;;;;5077731;28;20099;-69
2023/06/10 11:15:13;;;;;;;1.25;0.55;;;33.00;66.50;;;;;;5080051;28;20039;-68
2023/06/10 11:18:12;;;;;;;0.10;0.10;;;33.00;66.70;;;;;;5090694;28;20020;-69
2023/06/10 11:20:51;;;;;;;14.85;1.05;;;33.30;66.10;;;;;;5073380;28;20032;-70
2023/06/10 11:23:29;;;;;;;0.85;0.85;;;33.30;66.20;;;;;;5085007;28;20028;-71
2023/06/10 11:26:15;;;;;;;0.35;0.35;;;32.60;67.10;;;;;;5091949;28;20036;-72
2023/06/10 11:28:47;;;;;;;0.57;0.57;;;33.00;66.50;;;;;;5084737;28;20032;-69
2023/06/10 11:31:21;;;;;;;0.22;0.22;;;33.00;65.80;;;;;;5091234;28;20472;-72
2023/06/10 11:33:51;;;;;;;0.20;0.20;;;33.20;66.60;;;;;;5079345;28;20115;-70
2023/06/10 11:36:17;;;;;;;3.15;2.30;;;33.60;66.20;;;;;;5091723;28;20106;-71
2023/06/10 11:38:43;;;;;;;0.40;0.40;;;33.50;64.50;;;;;;5091879;28;20487;-71
2023/06/10 11:41:11;;;;;;;0.52;0.52;;;33.30;65.20;;;;;;5092317;28;20031;-70
2023/06/10 11:43:42;;;;;;;0.75;0.75;;;33.50;64.20;;;;;;5089403;28;20051;-71
2023/06/10 11:46:09;;;;;;;0.70;0.50;;;33.80;63.80;;;;;;5075022;28;20078;-71
2023/06/10 11:48:35;;;;;;;0.93;0.90;;;33.50;63.80;;;;;;5091235;28;20057;-70
2023/06/10 11:51:01;;;;;;;0.80;0.80;;;33.40;62.60;;;;;;5094155;28;20099;-71
2023/06/10 11:53:27;;;;;;;7.90;1.38;;;33.30;63.60;;;;;;5093784;28;20112;-70
2023/06/10 11:55:54;;;;;;;0.52;0.52;;;34.00;64.10;;;;;;5093392;28;20384;-72
2023/06/10 11:58:21;;;;;;;1.70;1.17;;;34.50;65.20;;;;;;5095708;28;20035;-71
2023/06/10 12:00:48;;;;;;;0.13;0.13;;;34.80;63.00;;;;;;5095689;28;20077;-70
2023/06/10 12:03:14;;;;;;;0.10;0.10;;;35.00;62.70;;;;;;5095726;28;20088;-71
2023/06/10 12:05:40;;;;;;;1.05;0.93;;;35.20;62.40;;;;;;5094671;28;20036;-71
2023/06/10 12:08:13;;;;;;;1.67;1.00;;;35.00;61.00;;;;;;5094444;28;20486;-71
2023/06/10 12:10:42;;;;;;;0.90;0.80;;;34.20;60.60;;;;;;5095135;28;20062;-71
2023/06/10 12:13:11;;;;;;;0.85;0.85;;;34.30;62.50;;;;;;5095447;28;20104;-71
2023/06/10 12:15:37;;;;;;;2.08;1.60;;;33.90;62.00;;;;;;5094915;28;20056;-71
2023/06/10 12:18:03;;;;;;;1.48;1.38;;;33.90;62.40;;;;;;5093169;28;20062;-72
2023/06/10 12:20:33;;;;;;;6.03;0.57;;;33.70;62.90;;;;;;5080094;28;20524;-69
2023/06/10 12:23:00;;;;;;;0.30;0.30;;;33.80;62.70;;;;;;5092466;28;20036;-72
2023/06/10 12:25:29;;;;;;;0.63;0.63;;;34.20;62.30;;;;;;5094694;28;20464;-71
2023/06/10 12:27:57;;;;;;;1.77;1.00;;;34.50;62.10;;;;;;5075427;28;20028;-69
2023/06/10 12:30:26;;;;;;;1.30;0.82;;;34.90;63.50;;;;;;5086397;28;20039;-71
2023/06/10 12:32:53;;;;;;;2.70;0.65;;;35.10;62.80;;;;;;5090947;28;20088;-71
2023/06/10 12:35:21;;;;;;;0.80;0.80;;;35.30;61.50;;;;;;5090256;28;20016;-72
2023/06/10 12:38:00;;;;;;;2.28;1.20;;;35.60;61.80;;;;;;5093190;28;20023;-72
2023/06/10 12:40:31;;;;;;;0.45;0.45;;;35.80;60.80;;;;;;5081616;28;20027;-70
2023/06/10 12:42:58;;;;;;;0.30;0.30;;;35.50;60.40;;;;;;5092740;28;20672;-71
2023/06/10 12:45:31;;;;;;;0.03;0.03;;;35.20;60.10;;;;;;5093175;28;20047;-69
2023/06/10 12:48:07;;;;;;;0.98;0.95;;;35.00;60.70;;;;;;5091980;28;20119;-70
2023/06/10 12:50:34;;;;;;;0.40;0.40;;;35.30;59.30;;;;;;5083613;28;20698;-70